createdAt,value
2019-02-19T00:00:13.498Z,86.92
2019-02-19T00:01:19.233Z,86.66
2019-02-19T00:02:24.772Z,87.57
2019-02-19T00:03:30.753Z,87.25
2019-02-19T00:04:36.695Z,86.81
2019-02-19T00:05:42.632Z,86.84
2019-02-19T00:06:48.530Z,87.06
2019-02-19T00:07:54.463Z,86.86
2019-02-19T00:09:00.371Z,87.64
2019-02-19T00:10:05.599Z,87.87
2019-02-19T00:11:11.230Z,88.25
2019-02-19T00:12:17.138Z,88.24
2019-02-19T00:13:23.051Z,88.20
2019-02-19T00:14:28.986Z,88.64
2019-02-19T00:15:34.521Z,88.40
2019-02-19T00:16:40.424Z,88.59
2019-02-19T00:17:46.357Z,88.82
2019-02-19T00:18:52.257Z,88.85
2019-02-19T00:19:58.153Z,89.12
2019-02-19T00:21:04.066Z,89.25
2019-02-19T00:22:09.687Z,89.77
2019-02-19T00:23:15.566Z,89.76
2019-02-19T00:24:21.487Z,89.47
2019-02-19T00:25:27.822Z,89.51
2019-02-19T00:26:33.994Z,89.94
2019-02-19T00:27:39.907Z,90.39
2019-02-19T00:28:45.781Z,90.81
2019-02-19T00:29:51.649Z,90.97
2019-02-19T00:30:57.566Z,91.23
2019-02-19T00:32:03.505Z,91.46
2019-02-19T00:33:09.593Z,91.65
2019-02-19T00:34:15.533Z,91.90
2019-02-19T00:35:21.433Z,92.18
2019-02-19T00:36:27.356Z,92.08
2019-02-19T00:37:33.238Z,91.56
2019-02-19T00:38:39.136Z,91.61
2019-02-19T00:39:45.015Z,91.52
2019-02-19T00:40:50.934Z,92.07
2019-02-19T00:41:56.840Z,92.70
2019-02-19T00:43:02.746Z,92.79
2019-02-19T00:44:08.396Z,92.69
2019-02-19T00:45:16.784Z,92.58
2019-02-19T00:46:20.309Z,92.01
2019-02-19T00:47:26.385Z,91.83
2019-02-19T00:48:32.300Z,91.72
2019-02-19T00:49:38.269Z,91.97
2019-02-19T00:50:44.198Z,92.46
2019-02-19T00:51:50.139Z,92.53
2019-02-19T00:52:56.031Z,92.52
2019-02-19T00:54:01.924Z,92.92
2019-02-19T00:55:07.141Z,92.92
2019-02-19T00:56:13.054Z,93.00
2019-02-19T00:57:19.003Z,93.14
2019-02-19T00:58:24.958Z,93.00
2019-02-19T00:59:30.855Z,93.66
2019-02-19T01:00:36.766Z,93.46
2019-02-19T01:01:42.273Z,93.23
2019-02-19T01:02:47.824Z,93.66
2019-02-19T01:03:53.408Z,93.49
2019-02-19T01:04:59.370Z,93.99
2019-02-19T01:06:04.959Z,94.29
2019-02-19T01:07:10.849Z,93.99
2019-02-19T01:08:15.822Z,94.53
2019-02-19T01:09:21.389Z,95.73
2019-02-19T01:10:26.605Z,96.01
2019-02-19T01:11:32.510Z,97.29
2019-02-19T01:12:38.441Z,97.42
2019-02-19T01:13:44.388Z,97.40
2019-02-19T01:14:50.307Z,97.31
2019-02-19T01:15:55.889Z,96.26
2019-02-19T01:17:01.804Z,95.81
2019-02-19T01:18:07.023Z,95.37
2019-02-19T01:19:12.927Z,94.77
2019-02-19T01:20:18.904Z,94.47
2019-02-19T01:21:24.798Z,94.04
2019-02-19T01:22:30.760Z,94.43
2019-02-19T01:23:36.640Z,94.64
2019-02-19T01:24:42.542Z,94.93
2019-02-19T01:25:48.461Z,94.73
2019-02-19T01:26:54.394Z,94.31
2019-02-19T01:28:00.351Z,93.49
2019-02-19T01:29:06.922Z,92.56
2019-02-19T01:30:12.823Z,92.20
2019-02-19T01:31:18.730Z,91.46
2019-02-19T01:32:24.708Z,91.00
2019-02-19T01:33:30.582Z,91.46
2019-02-19T01:34:36.540Z,91.84
2019-02-19T01:35:43.044Z,92.27
2019-02-19T01:36:49.013Z,92.81
2019-02-19T01:37:54.940Z,92.80
2019-02-19T01:39:00.874Z,93.10
2019-02-19T01:40:06.093Z,92.67
2019-02-19T01:41:11.966Z,92.69
2019-02-19T01:42:17.924Z,93.14
2019-02-19T01:43:23.866Z,93.44
2019-02-19T01:44:29.747Z,94.04
2019-02-19T01:45:35.633Z,94.50
2019-02-19T01:46:41.753Z,94.55
2019-02-19T01:47:47.690Z,94.35
2019-02-19T01:48:53.633Z,93.94
2019-02-19T01:49:59.547Z,93.90
2019-02-19T01:51:05.450Z,93.81
2019-02-19T01:52:11.350Z,95.11
2019-02-19T01:53:17.301Z,95.59
2019-02-19T01:54:23.187Z,96.98
2019-02-19T01:55:29.103Z,98.87
2019-02-19T01:56:35.010Z,100.00
2019-02-19T01:57:40.951Z,100.00
2019-02-19T01:58:46.890Z,100.00
2019-02-19T01:59:52.806Z,100.00
2019-02-19T02:00:58.706Z,100.00
2019-02-19T02:02:04.240Z,100.00
2019-02-19T02:03:10.200Z,99.30
2019-02-19T02:04:16.075Z,99.05
2019-02-19T02:05:21.993Z,98.77
2019-02-19T02:06:27.929Z,98.32
2019-02-19T02:07:33.573Z,98.41
2019-02-19T02:08:39.447Z,98.01
2019-02-19T02:09:45.427Z,98.11
2019-02-19T02:10:51.322Z,99.85
2019-02-19T02:11:57.230Z,100.00
2019-02-19T02:13:03.199Z,100.00
2019-02-19T02:14:09.087Z,100.00
2019-02-19T02:15:14.982Z,100.00
2019-02-19T02:16:20.898Z,99.07
2019-02-19T02:17:26.778Z,97.70
2019-02-19T02:18:32.705Z,96.55
2019-02-19T02:19:38.276Z,96.27
2019-02-19T02:20:44.218Z,96.73
2019-02-19T02:21:50.098Z,98.74
2019-02-19T02:22:56.004Z,100.00
2019-02-19T02:24:01.905Z,100.00
2019-02-19T02:25:07.150Z,100.00
2019-02-19T02:26:13.072Z,100.00
2019-02-19T02:27:18.597Z,100.00
2019-02-19T02:28:24.543Z,100.00
2019-02-19T02:29:30.468Z,99.95
2019-02-19T02:30:36.374Z,98.98
2019-02-19T02:31:42.305Z,97.88
2019-02-19T02:32:48.350Z,96.66
2019-02-19T02:33:54.308Z,96.56
2019-02-19T02:35:00.307Z,96.04
2019-02-19T02:36:06.217Z,95.18
2019-02-19T02:37:12.148Z,94.65
2019-02-19T02:38:18.053Z,94.69
2019-02-19T02:39:23.995Z,94.63
2019-02-19T02:40:29.885Z,96.08
2019-02-19T02:41:35.795Z,96.98
2019-02-19T02:42:41.691Z,97.47
2019-02-19T02:43:47.631Z,97.20
2019-02-19T02:44:53.566Z,96.55
2019-02-19T02:45:59.488Z,95.67
2019-02-19T02:47:05.407Z,94.83
2019-02-19T02:48:11.385Z,94.81
2019-02-19T02:49:17.286Z,94.21
2019-02-19T02:50:23.188Z,94.11
2019-02-19T02:51:29.075Z,94.60
2019-02-19T02:52:34.968Z,94.34
2019-02-19T02:53:40.874Z,94.16
2019-02-19T02:54:46.752Z,94.22
2019-02-19T02:55:52.644Z,94.20
2019-02-19T02:56:58.547Z,93.93
2019-02-19T02:58:04.446Z,94.04
2019-02-19T02:59:10.391Z,94.17
2019-02-19T03:00:16.296Z,94.89
2019-02-19T03:01:22.227Z,95.23
2019-02-19T03:02:28.151Z,96.02
2019-02-19T03:03:34.164Z,96.02
2019-02-19T03:04:39.721Z,96.12
2019-02-19T03:05:57.577Z,96.32
2019-02-19T03:07:03.225Z,97.12
2019-02-19T03:08:09.187Z,97.89
2019-02-19T03:09:15.146Z,99.53
2019-02-19T03:10:21.062Z,98.39
2019-02-19T03:11:26.973Z,98.11
2019-02-19T03:12:32.894Z,97.17
2019-02-19T03:13:38.824Z,95.63
2019-02-19T03:14:44.706Z,94.19
2019-02-19T03:15:50.798Z,92.35
2019-02-19T03:16:56.863Z,90.98
2019-02-19T03:18:02.773Z,90.09
2019-02-19T03:19:08.785Z,89.23
2019-02-19T03:20:14.316Z,88.09
2019-02-19T03:21:19.930Z,87.31
2019-02-19T03:22:26.014Z,87.17
2019-02-19T03:23:33.644Z,86.73
2019-02-19T03:24:39.626Z,86.31
2019-02-19T03:25:45.652Z,86.13
2019-02-19T03:26:51.680Z,85.37
2019-02-19T03:27:57.733Z,85.03
2019-02-19T03:29:03.658Z,84.42
2019-02-19T03:30:08.946Z,84.09
2019-02-19T03:31:14.975Z,84.31
2019-02-19T03:32:20.895Z,84.57
2019-02-19T03:33:27.030Z,84.17
2019-02-19T03:34:33.109Z,83.76
2019-02-19T03:35:39.070Z,83.18
2019-02-19T03:36:45.523Z,83.71
2019-02-19T03:37:52.691Z,84.26
2019-02-19T03:38:58.709Z,84.95
2019-02-19T03:40:03.913Z,84.26
2019-02-19T03:41:09.867Z,84.52
2019-02-19T03:42:15.305Z,83.83
2019-02-19T03:43:21.239Z,84.07
2019-02-19T03:44:27.353Z,83.88
2019-02-19T03:45:33.414Z,84.13
2019-02-19T03:46:39.014Z,83.80
2019-02-19T03:47:45.101Z,83.79
2019-02-19T03:48:51.234Z,83.80
2019-02-19T03:49:57.202Z,84.24
2019-02-19T03:51:03.116Z,84.16
2019-02-19T03:52:09.213Z,84.39
2019-02-19T03:53:14.870Z,83.79
2019-02-19T03:54:20.775Z,83.81
2019-02-19T03:55:26.678Z,82.90
2019-02-19T03:56:32.588Z,82.62
2019-02-19T03:57:38.161Z,83.14
2019-02-19T03:58:43.752Z,83.18
2019-02-19T03:59:49.776Z,83.04
2019-02-19T04:00:55.571Z,82.43
2019-02-19T04:02:01.326Z,82.14
2019-02-19T04:03:07.362Z,81.69
2019-02-19T04:04:13.328Z,81.34
2019-02-19T04:05:19.389Z,81.38
2019-02-19T04:06:25.338Z,80.86
2019-02-19T04:07:30.948Z,81.04
2019-02-19T04:08:36.982Z,81.74
2019-02-19T04:09:43.027Z,82.08
2019-02-19T04:10:49.004Z,82.30
2019-02-19T04:11:54.917Z,82.15
2019-02-19T04:13:00.952Z,82.20
2019-02-19T04:14:06.978Z,81.69
2019-02-19T04:15:12.961Z,81.37
2019-02-19T04:16:21.252Z,81.75
2019-02-19T04:17:24.978Z,82.14
2019-02-19T04:18:31.008Z,81.73
2019-02-19T04:19:37.064Z,82.03
2019-02-19T04:20:43.519Z,82.78
2019-02-19T04:21:49.988Z,82.04
2019-02-19T04:22:55.948Z,81.81
2019-02-19T04:24:01.916Z,82.23
2019-02-19T04:25:07.498Z,82.89
2019-02-19T04:26:14.106Z,82.86
2019-02-19T04:27:19.349Z,82.71
2019-02-19T04:28:25.306Z,82.72
2019-02-19T04:29:30.948Z,82.32
2019-02-19T04:30:36.923Z,82.46
2019-02-19T04:31:42.976Z,82.85
2019-02-19T04:32:48.984Z,81.88
2019-02-19T04:33:55.023Z,81.25
2019-02-19T04:35:01.016Z,81.31
2019-02-19T04:36:07.029Z,81.26
2019-02-19T04:37:12.998Z,80.93
2019-02-19T04:38:19.113Z,81.05
2019-02-19T04:39:25.242Z,81.06
2019-02-19T04:40:31.140Z,81.43
2019-02-19T04:41:37.572Z,81.34
2019-02-19T04:42:44.130Z,81.58
2019-02-19T04:43:50.078Z,81.76
2019-02-19T04:44:56.021Z,81.77
2019-02-19T04:46:01.953Z,81.31
2019-02-19T04:47:07.863Z,80.30
2019-02-19T04:48:13.836Z,80.00
2019-02-19T04:49:19.766Z,81.05
2019-02-19T04:50:25.696Z,80.64
2019-02-19T04:51:31.632Z,80.06
2019-02-19T04:52:37.590Z,79.69
2019-02-19T04:53:43.503Z,79.60
2019-02-19T04:54:49.426Z,80.15
2019-02-19T04:55:55.371Z,80.73
2019-02-19T04:57:01.289Z,81.23
2019-02-19T04:58:07.247Z,81.53
2019-02-19T04:59:13.203Z,81.47
2019-02-19T05:00:19.121Z,81.39
2019-02-19T05:01:25.050Z,81.66
2019-02-19T05:02:30.932Z,81.86
2019-02-19T05:03:36.865Z,82.36
2019-02-19T05:04:42.857Z,83.59
2019-02-19T05:05:48.738Z,84.21
2019-02-19T05:06:54.707Z,84.95
2019-02-19T05:08:00.568Z,86.09
2019-02-19T05:09:05.552Z,86.87
2019-02-19T05:10:10.897Z,87.13
2019-02-19T05:11:16.798Z,87.98
2019-02-19T05:12:22.675Z,88.46
2019-02-19T05:13:28.558Z,88.93
2019-02-19T05:14:34.527Z,89.27
2019-02-19T05:15:40.436Z,89.57
2019-02-19T05:16:46.309Z,89.34
2019-02-19T05:17:52.193Z,89.38
2019-02-19T05:18:58.105Z,89.07
2019-02-19T05:20:03.638Z,88.76
2019-02-19T05:21:09.555Z,88.74
2019-02-19T05:22:15.494Z,89.80
2019-02-19T05:23:21.405Z,89.74
2019-02-19T05:24:27.322Z,89.44
2019-02-19T05:25:33.247Z,89.60
2019-02-19T05:26:39.181Z,89.39
2019-02-19T05:27:45.079Z,89.62
2019-02-19T05:28:50.955Z,90.18
2019-02-19T05:29:56.924Z,90.76
2019-02-19T05:31:02.817Z,91.01
2019-02-19T05:32:08.713Z,91.11
2019-02-19T05:33:14.619Z,91.15
2019-02-19T05:34:20.563Z,92.07
2019-02-19T05:35:26.466Z,91.98
2019-02-19T05:36:32.404Z,91.75
2019-02-19T05:37:38.342Z,91.77
2019-02-19T05:38:44.258Z,92.14
2019-02-19T05:39:50.160Z,92.68
2019-02-19T05:40:56.058Z,92.52
2019-02-19T05:42:01.941Z,92.92
2019-02-19T05:43:07.869Z,92.82
2019-02-19T05:44:13.778Z,92.66
2019-02-19T05:45:20.454Z,92.23
2019-02-19T05:46:26.463Z,92.54
2019-02-19T05:47:32.403Z,92.56
2019-02-19T05:48:38.305Z,92.59
2019-02-19T05:49:44.245Z,92.62
2019-02-19T05:50:50.124Z,94.09
2019-02-19T05:51:56.038Z,93.71
2019-02-19T05:53:01.935Z,93.99
2019-02-19T05:54:07.818Z,94.45
2019-02-19T05:55:13.761Z,94.49
2019-02-19T05:56:19.672Z,95.30
2019-02-19T05:57:25.565Z,95.07
2019-02-19T05:58:31.504Z,95.00
2019-02-19T05:59:37.426Z,95.34
2019-02-19T06:00:43.040Z,95.19
2019-02-19T06:01:48.573Z,95.12
2019-02-19T06:02:54.498Z,95.66
2019-02-19T06:04:00.411Z,95.94
2019-02-19T06:05:05.907Z,96.89
2019-02-19T06:06:11.563Z,96.18
2019-02-19T06:07:17.543Z,95.85
2019-02-19T06:08:23.527Z,95.80
2019-02-19T06:09:29.574Z,96.61
2019-02-19T06:10:35.546Z,95.98
2019-02-19T06:11:41.411Z,96.12
2019-02-19T06:12:47.282Z,96.60
2019-02-19T06:13:53.179Z,96.40
2019-02-19T06:14:59.109Z,97.77
2019-02-19T06:16:04.998Z,96.91
2019-02-19T06:17:10.898Z,97.34
2019-02-19T06:18:16.773Z,96.88
2019-02-19T06:19:22.710Z,97.00
2019-02-19T06:20:28.591Z,98.05
2019-02-19T06:21:34.468Z,97.48
2019-02-19T06:22:40.379Z,96.80
2019-02-19T06:23:46.323Z,96.56
2019-02-19T06:24:51.844Z,96.40
2019-02-19T06:25:57.834Z,96.64
2019-02-19T06:27:03.745Z,96.33
2019-02-19T06:28:09.620Z,95.98
2019-02-19T06:29:15.538Z,96.45
2019-02-19T06:30:21.512Z,96.18
2019-02-19T06:31:27.427Z,96.57
2019-02-19T06:32:33.304Z,96.60
2019-02-19T06:33:39.259Z,96.83
2019-02-19T06:34:45.181Z,96.91
2019-02-19T06:35:51.132Z,97.05
2019-02-19T06:36:57.009Z,96.50
2019-02-19T06:38:02.965Z,96.97
2019-02-19T06:39:08.942Z,97.16
2019-02-19T06:40:23.044Z,97.31
2019-02-19T06:41:28.933Z,97.09
2019-02-19T06:42:34.814Z,95.46
2019-02-19T06:43:40.743Z,94.42
2019-02-19T06:44:46.615Z,93.68
2019-02-19T06:45:52.517Z,92.35
2019-02-19T06:47:06.515Z,91.77
2019-02-19T06:48:04.055Z,90.89
2019-02-19T06:49:09.947Z,89.63
2019-02-19T06:50:15.464Z,88.60
2019-02-19T06:51:21.404Z,87.26
2019-02-19T06:52:27.290Z,85.96
2019-02-19T06:53:33.228Z,85.07
2019-02-19T06:54:39.225Z,84.42
2019-02-19T06:55:45.121Z,83.96
2019-02-19T06:56:50.990Z,83.43
2019-02-19T06:57:56.905Z,83.04
2019-02-19T06:59:02.808Z,82.67
2019-02-19T07:00:08.644Z,82.71
2019-02-19T07:01:14.544Z,81.71
2019-02-19T07:02:20.202Z,81.81
2019-02-19T07:03:26.845Z,81.51
2019-02-19T07:04:32.481Z,81.17
2019-02-19T07:05:38.436Z,80.89
2019-02-19T07:06:44.326Z,80.34
2019-02-19T07:07:49.964Z,80.22
2019-02-19T07:08:55.890Z,79.92
2019-02-19T07:10:01.849Z,80.13
2019-02-19T07:11:07.796Z,79.80
2019-02-19T07:12:13.662Z,80.06
2019-02-19T07:13:19.553Z,79.85
2019-02-19T07:14:25.456Z,79.30
2019-02-19T07:15:31.379Z,79.34
2019-02-19T07:16:37.309Z,78.55
2019-02-19T07:17:43.196Z,78.27
2019-02-19T07:18:49.113Z,78.07
2019-02-19T07:19:55.001Z,78.12
2019-02-19T07:21:00.838Z,77.89
2019-02-19T07:22:06.729Z,78.50
2019-02-19T07:23:12.624Z,78.25
2019-02-19T07:24:18.529Z,77.65
2019-02-19T07:25:24.102Z,77.85
2019-02-19T07:26:30.075Z,77.77
2019-02-19T07:27:35.948Z,77.84
2019-02-19T07:28:41.877Z,77.87
2019-02-19T07:29:47.763Z,77.44
2019-02-19T07:30:53.692Z,76.93
2019-02-19T07:31:59.634Z,76.50
2019-02-19T07:33:05.549Z,77.03
2019-02-19T07:34:11.431Z,77.25
2019-02-19T07:35:17.403Z,77.23
2019-02-19T07:36:23.320Z,77.30
2019-02-19T07:37:29.222Z,77.14
2019-02-19T07:38:35.126Z,77.13
2019-02-19T07:39:41.165Z,77.78
2019-02-19T07:40:47.076Z,77.73
2019-02-19T07:41:52.990Z,77.93
2019-02-19T07:42:58.906Z,77.15
2019-02-19T07:44:04.853Z,77.07
2019-02-19T07:45:10.771Z,77.52
2019-02-19T07:46:16.690Z,78.12
2019-02-19T07:47:24.667Z,77.75
2019-02-19T07:48:28.537Z,77.53
2019-02-19T07:49:34.436Z,76.90
2019-02-19T07:50:40.311Z,76.86
2019-02-19T07:51:47.260Z,77.38
2019-02-19T07:52:53.689Z,77.39
2019-02-19T07:53:59.613Z,77.75
2019-02-19T07:55:04.862Z,78.07
2019-02-19T07:56:10.779Z,78.11
2019-02-19T07:57:16.698Z,77.48
2019-02-19T07:58:22.617Z,78.07
2019-02-19T07:59:28.491Z,77.40
2019-02-19T08:00:37.368Z,77.58
2019-02-19T08:01:43.298Z,77.61
2019-02-19T08:02:49.192Z,77.44
2019-02-19T08:03:55.128Z,77.52
2019-02-19T08:05:01.021Z,77.77
2019-02-19T08:06:06.983Z,77.67
2019-02-19T08:07:12.892Z,77.74
2019-02-19T08:08:18.839Z,77.91
2019-02-19T08:09:24.747Z,78.20
2019-02-19T08:10:30.646Z,78.27
2019-02-19T08:11:36.663Z,78.85
2019-02-19T08:12:43.093Z,79.09
2019-02-19T08:13:49.454Z,78.19
2019-02-19T08:14:55.377Z,77.74
2019-02-19T08:16:01.271Z,78.51
2019-02-19T08:17:07.188Z,78.21
2019-02-19T08:18:13.070Z,77.58
2019-02-19T08:19:19.006Z,77.46
2019-02-19T08:20:24.892Z,77.55
2019-02-19T08:21:30.806Z,77.45
2019-02-19T08:22:36.731Z,76.97
2019-02-19T08:23:42.603Z,76.74
2019-02-19T08:24:48.481Z,77.18
2019-02-19T08:25:54.369Z,76.84
2019-02-19T08:27:00.330Z,76.53
2019-02-19T08:28:05.926Z,76.25
2019-02-19T08:29:13.984Z,76.02
2019-02-19T08:30:17.750Z,76.11
2019-02-19T08:31:23.626Z,76.10
2019-02-19T08:32:29.555Z,76.15
2019-02-19T08:33:35.466Z,76.43
2019-02-19T08:34:41.154Z,75.78
2019-02-19T08:35:47.056Z,76.03
2019-02-19T08:36:53.065Z,75.77
2019-02-19T08:37:59.027Z,75.49
2019-02-19T08:39:04.009Z,75.29
2019-02-19T08:40:09.245Z,74.91
2019-02-19T08:41:15.127Z,74.80
2019-02-19T08:42:21.069Z,74.64
2019-02-19T08:43:27.045Z,75.33
2019-02-19T08:44:32.948Z,74.92
2019-02-19T08:45:38.850Z,74.72
2019-02-19T08:46:44.732Z,74.33
2019-02-19T08:47:50.652Z,74.42
2019-02-19T08:48:56.551Z,74.92
2019-02-19T08:50:02.311Z,74.62
2019-02-19T08:51:07.871Z,74.16
2019-02-19T08:52:13.828Z,74.19
2019-02-19T08:53:19.715Z,74.47
2019-02-19T08:54:25.581Z,73.93
2019-02-19T08:55:32.084Z,73.92
2019-02-19T08:56:38.539Z,74.66
2019-02-19T08:57:44.443Z,74.13
2019-02-19T08:58:51.208Z,73.89
2019-02-19T08:59:57.111Z,73.82
2019-02-19T09:01:03.136Z,73.57
2019-02-19T09:02:08.772Z,73.68
2019-02-19T09:03:14.657Z,74.09
2019-02-19T09:04:20.586Z,73.49
2019-02-19T09:05:26.458Z,73.66
2019-02-19T09:06:32.379Z,73.25
2019-02-19T09:07:38.288Z,72.96
2019-02-19T09:08:44.191Z,72.75
2019-02-19T09:09:50.152Z,72.49
2019-02-19T09:10:56.071Z,72.66
2019-02-19T09:12:01.979Z,72.19
2019-02-19T09:13:07.932Z,72.37
2019-02-19T09:14:13.899Z,72.14
2019-02-19T09:15:19.839Z,71.82
2019-02-19T09:16:25.887Z,72.19
2019-02-19T09:17:31.956Z,71.56
2019-02-19T09:18:37.882Z,70.85
2019-02-19T09:19:43.804Z,70.90
2019-02-19T09:20:49.745Z,71.30
2019-02-19T09:21:55.995Z,71.36
2019-02-19T09:23:02.533Z,71.46
2019-02-19T09:24:09.758Z,71.28
2019-02-19T09:25:14.376Z,70.83
2019-02-19T09:26:19.972Z,70.64
2019-02-19T09:27:25.956Z,70.32
2019-02-19T09:28:31.941Z,70.65
2019-02-19T09:29:37.807Z,70.22
2019-02-19T09:30:43.755Z,69.60
2019-02-19T09:31:49.693Z,69.47
2019-02-19T09:32:55.815Z,69.28
2019-02-19T09:34:01.699Z,68.88
2019-02-19T09:35:06.927Z,68.47
2019-02-19T09:36:12.940Z,68.75
2019-02-19T09:37:18.919Z,68.99
2019-02-19T09:38:24.968Z,69.36
2019-02-19T09:39:30.870Z,69.55
2019-02-19T09:40:36.797Z,70.06
2019-02-19T09:41:42.362Z,69.74
2019-02-19T09:42:48.267Z,69.69
2019-02-19T09:43:54.167Z,69.62
2019-02-19T09:45:00.281Z,69.64
2019-02-19T09:46:06.007Z,70.39
2019-02-19T09:47:11.869Z,70.04
2019-02-19T09:48:17.790Z,70.13
2019-02-19T09:49:23.410Z,70.11
2019-02-19T09:50:29.327Z,70.71
2019-02-19T09:51:35.251Z,71.00
2019-02-19T09:52:41.149Z,70.98
2019-02-19T09:53:47.089Z,71.44
2019-02-19T09:54:52.975Z,71.25
2019-02-19T09:55:58.859Z,71.41
2019-02-19T09:57:04.388Z,71.06
2019-02-19T09:58:10.460Z,70.80
2019-02-19T09:59:16.471Z,71.15
2019-02-19T10:00:22.351Z,71.17
2019-02-19T10:01:28.539Z,70.81
2019-02-19T10:02:34.273Z,71.16
2019-02-19T10:03:40.204Z,71.30
2019-02-19T10:04:46.100Z,71.07
2019-02-19T10:05:52.057Z,71.41
2019-02-19T10:06:58.026Z,70.97
2019-02-19T10:08:03.971Z,71.13
2019-02-19T10:09:09.653Z,71.33
2019-02-19T10:10:17.528Z,71.38
2019-02-19T10:11:23.425Z,71.24
2019-02-19T10:12:29.334Z,71.11
2019-02-19T10:13:35.329Z,71.47
2019-02-19T10:14:41.249Z,71.13
2019-02-19T10:15:47.149Z,70.85
2019-02-19T10:16:53.050Z,70.89
2019-02-19T10:17:58.629Z,70.89
2019-02-19T10:19:04.533Z,70.75
2019-02-19T10:20:10.557Z,70.35
2019-02-19T10:21:17.021Z,70.20
2019-02-19T10:22:23.433Z,71.50
2019-02-19T10:23:29.655Z,70.88
2019-02-19T10:24:35.545Z,70.79
2019-02-19T10:25:41.451Z,70.82
2019-02-19T10:26:47.329Z,71.20
2019-02-19T10:27:53.369Z,71.58
2019-02-19T10:28:59.277Z,71.20
2019-02-19T10:30:07.374Z,71.00
2019-02-19T10:31:13.274Z,71.16
2019-02-19T10:32:19.145Z,71.63
2019-02-19T10:33:25.086Z,71.56
2019-02-19T10:34:30.993Z,71.67
2019-02-19T10:35:36.951Z,71.22
2019-02-19T10:36:42.880Z,71.27
2019-02-19T10:37:48.773Z,71.90
2019-02-19T10:38:54.680Z,72.58
2019-02-19T10:40:00.647Z,72.03
2019-02-19T10:41:07.416Z,71.97
2019-02-19T10:42:13.917Z,72.21
2019-02-19T10:43:19.900Z,72.56
2019-02-19T10:44:25.805Z,72.70
2019-02-19T10:45:31.733Z,72.79
2019-02-19T10:46:37.339Z,72.64
2019-02-19T10:47:43.268Z,72.59
2019-02-19T10:48:49.244Z,72.66
2019-02-19T10:49:55.226Z,72.21
2019-02-19T10:51:01.144Z,72.74
2019-02-19T10:52:07.034Z,72.30
2019-02-19T10:53:12.948Z,72.83
2019-02-19T10:54:18.861Z,72.58
2019-02-19T10:55:24.786Z,72.46
2019-02-19T10:56:30.650Z,72.61
2019-02-19T10:57:36.556Z,72.36
2019-02-19T10:58:42.493Z,72.61
2019-02-19T10:59:48.401Z,72.45
2019-02-19T11:00:54.304Z,72.09
2019-02-19T11:02:00.232Z,72.29
2019-02-19T11:03:06.128Z,73.25
2019-02-19T11:04:12.592Z,73.51
2019-02-19T11:05:18.526Z,73.03
2019-02-19T11:06:24.440Z,72.79
2019-02-19T11:07:30.349Z,72.64
2019-02-19T11:08:36.293Z,73.02
2019-02-19T11:09:42.203Z,74.17
2019-02-19T11:10:48.152Z,73.77
2019-02-19T11:11:54.083Z,73.16
2019-02-19T11:12:59.953Z,72.94
2019-02-19T11:14:05.541Z,72.96
2019-02-19T11:15:11.510Z,73.60
2019-02-19T11:16:17.463Z,74.27
2019-02-19T11:17:23.344Z,73.82
2019-02-19T11:18:29.266Z,73.86
2019-02-19T11:19:35.213Z,74.14
2019-02-19T11:20:41.156Z,74.21
2019-02-19T11:21:47.133Z,74.21
2019-02-19T11:22:53.036Z,74.50
2019-02-19T11:24:00.848Z,73.82
2019-02-19T11:25:06.659Z,75.06
2019-02-19T11:26:12.647Z,75.59
2019-02-19T11:27:18.281Z,75.78
2019-02-19T11:28:23.880Z,75.91
2019-02-19T11:29:29.808Z,75.37
2019-02-19T11:30:35.739Z,75.02
2019-02-19T11:31:41.627Z,74.18
2019-02-19T11:32:47.186Z,74.57
2019-02-19T11:33:53.119Z,74.64
2019-02-19T11:34:58.998Z,75.02
2019-02-19T11:36:04.170Z,75.14
2019-02-19T11:37:10.054Z,74.64
2019-02-19T11:38:15.967Z,74.95
2019-02-19T11:39:22.632Z,75.44
2019-02-19T11:40:27.509Z,75.11
2019-02-19T11:41:33.475Z,75.15
2019-02-19T11:42:39.343Z,75.93
2019-02-19T11:43:45.289Z,75.58
2019-02-19T11:44:51.301Z,75.48
2019-02-19T11:45:56.879Z,75.60
2019-02-19T11:47:02.789Z,75.06
2019-02-19T11:48:08.675Z,74.50
2019-02-19T11:49:14.686Z,75.75
2019-02-19T11:50:20.591Z,75.77
2019-02-19T11:51:26.489Z,75.64
2019-02-19T11:52:32.402Z,75.66
2019-02-19T11:53:38.350Z,75.74
2019-02-19T11:54:44.331Z,76.03
2019-02-19T11:55:50.262Z,76.18
2019-02-19T11:56:56.167Z,76.28
2019-02-19T11:58:02.048Z,76.51
2019-02-19T11:59:08.747Z,76.49
2019-02-19T12:00:13.801Z,76.42
2019-02-19T12:01:19.747Z,76.44
2019-02-19T12:02:32.765Z,77.10
2019-02-19T12:03:31.309Z,76.97
2019-02-19T12:04:37.262Z,76.76
2019-02-19T12:05:43.139Z,76.47
2019-02-19T12:06:49.495Z,76.20
2019-02-19T12:07:55.432Z,76.76
2019-02-19T12:09:01.364Z,76.96
2019-02-19T12:10:07.203Z,76.58
2019-02-19T12:11:16.223Z,77.51
2019-02-19T12:12:22.197Z,77.91
2019-02-19T12:13:28.116Z,78.14
2019-02-19T12:14:34.129Z,78.16
2019-02-19T12:15:40.099Z,78.09
2019-02-19T12:16:45.995Z,78.03
2019-02-19T12:17:51.909Z,78.52
2019-02-19T12:18:57.863Z,79.06
2019-02-19T12:20:03.428Z,78.67
2019-02-19T12:21:10.607Z,78.71
2019-02-19T12:22:14.877Z,78.57
2019-02-19T12:23:20.470Z,79.18
2019-02-19T12:24:26.395Z,78.03
2019-02-19T12:25:32.280Z,77.89
2019-02-19T12:26:38.173Z,77.63
2019-02-19T12:27:44.682Z,78.04
2019-02-19T12:28:50.745Z,78.32
2019-02-19T12:29:56.668Z,78.71
2019-02-19T12:31:02.580Z,78.69
2019-02-19T12:32:08.520Z,77.89
2019-02-19T12:33:14.426Z,77.88
2019-02-19T12:34:20.376Z,78.87
2019-02-19T12:35:26.302Z,78.61
2019-02-19T12:36:31.962Z,78.27
2019-02-19T12:37:37.501Z,79.22
2019-02-19T12:38:45.434Z,79.45
2019-02-19T12:39:51.421Z,79.31
2019-02-19T12:40:57.124Z,79.00
2019-02-19T12:42:03.000Z,79.53
2019-02-19T12:43:08.887Z,78.83
2019-02-19T12:44:14.811Z,78.42
2019-02-19T12:45:20.812Z,78.66
2019-02-19T12:46:26.736Z,78.57
2019-02-19T12:47:32.598Z,79.01
2019-02-19T12:48:38.649Z,79.46
2019-02-19T12:49:44.794Z,78.80
2019-02-19T12:50:50.664Z,78.28
2019-02-19T12:51:56.608Z,79.06
2019-02-19T12:53:02.503Z,78.96
2019-02-19T12:54:08.517Z,79.04
2019-02-19T12:55:14.501Z,78.47
2019-02-19T12:56:20.450Z,78.21
2019-02-19T12:57:26.332Z,77.55
2019-02-19T12:58:32.323Z,78.19
2019-02-19T12:59:38.248Z,77.99
2019-02-19T13:00:44.187Z,78.00
2019-02-19T13:01:50.093Z,77.23
2019-02-19T13:02:55.606Z,77.13
2019-02-19T13:04:01.586Z,76.82
2019-02-19T13:05:06.852Z,77.37
2019-02-19T13:06:12.775Z,77.66
2019-02-19T13:07:18.693Z,78.24
2019-02-19T13:08:24.632Z,78.22
2019-02-19T13:09:30.585Z,78.39
2019-02-19T13:10:36.478Z,79.23
2019-02-19T13:11:42.404Z,78.79
2019-02-19T13:12:49.141Z,77.92
2019-02-19T13:13:54.222Z,77.23
2019-02-19T13:15:00.301Z,78.70
2019-02-19T13:16:06.126Z,78.19
2019-02-19T13:17:12.028Z,77.48
2019-02-19T13:18:17.940Z,77.05
2019-02-19T13:19:23.824Z,76.35
2019-02-19T13:20:29.734Z,76.26
2019-02-19T13:21:35.618Z,76.66
2019-02-19T13:22:41.554Z,76.85
2019-02-19T13:23:48.752Z,76.57
2019-02-19T13:24:54.681Z,76.88
2019-02-19T13:26:00.577Z,76.74
2019-02-19T13:27:06.454Z,76.83
2019-02-19T13:28:12.343Z,77.75
2019-02-19T13:29:18.270Z,77.25
2019-02-19T13:30:23.913Z,76.79
2019-02-19T13:31:29.854Z,77.49
2019-02-19T13:32:35.734Z,77.17
2019-02-19T13:33:41.371Z,76.53
2019-02-19T13:34:47.338Z,76.77
2019-02-19T13:35:53.250Z,77.67
2019-02-19T13:36:59.230Z,77.49
2019-02-19T13:38:05.150Z,76.23
2019-02-19T13:39:11.081Z,76.49
2019-02-19T13:40:17.731Z,76.04
2019-02-19T13:41:23.675Z,75.41
2019-02-19T13:42:29.604Z,75.13
2019-02-19T13:43:35.523Z,75.27
2019-02-19T13:44:41.493Z,75.09
2019-02-19T13:45:47.419Z,74.58
2019-02-19T13:46:53.361Z,74.06
2019-02-19T13:48:05.718Z,73.42
2019-02-19T13:49:12.002Z,72.61
2019-02-19T13:50:14.310Z,72.32
2019-02-19T13:51:20.210Z,71.47
2019-02-19T13:52:26.088Z,70.93
2019-02-19T13:53:32.126Z,70.73
2019-02-19T13:54:38.065Z,70.89
2019-02-19T13:55:44.602Z,70.14
2019-02-19T13:56:50.507Z,69.97
2019-02-19T13:57:57.519Z,69.69
2019-02-19T13:59:02.441Z,70.52
2019-02-19T14:00:07.453Z,70.49
2019-02-19T14:01:13.364Z,70.50
2019-02-19T14:02:19.295Z,69.61
2019-02-19T14:03:25.297Z,69.81
2019-02-19T14:04:31.268Z,69.52
2019-02-19T14:05:36.884Z,70.49
2019-02-19T14:06:42.826Z,69.96
2019-02-19T14:07:48.398Z,71.47
2019-02-19T14:08:54.343Z,70.41